createdAt,value
2023-03-28T00:00:27.991Z,2.20
2023-03-28T00:06:36.797Z,2.13
2023-03-28T00:09:11.749Z,1.73
2023-03-28T00:11:44.082Z,2.13
2023-03-28T00:14:28.630Z,2.03
2023-03-28T00:17:20.822Z,1.80
2023-03-28T00:20:07.914Z,2.10
2023-03-28T00:26:46.219Z,2.13
2023-03-28T00:29:44.107Z,2.57
2023-03-28T00:32:24.313Z,2.10
2023-03-28T00:35:10.732Z,1.77
2023-03-28T00:38:03.009Z,2.00
2023-03-28T00:40:40.082Z,1.70
2023-03-28T00:43:22.254Z,1.97
2023-03-28T00:46:06.340Z,2.27
2023-03-28T00:48:59.330Z,2.30
2023-03-28T00:51:49.622Z,2.33
2023-03-28T00:58:06.838Z,2.80
2023-03-28T01:00:35.503Z,2.10
2023-03-28T01:03:08.882Z,1.87
2023-03-28T01:05:48.564Z,2.67
2023-03-28T01:08:31.005Z,2.80
2023-03-28T01:11:00.136Z,2.20
2023-03-28T01:13:33.846Z,2.73
2023-03-28T01:16:04.580Z,2.00
2023-03-28T01:18:41.938Z,2.20
2023-03-28T01:25:53.822Z,2.37
2023-03-28T01:28:33.154Z,2.53
2023-03-28T01:31:39.204Z,2.37
2023-03-28T01:34:32.999Z,2.60
2023-03-28T01:37:23.833Z,2.77
2023-03-28T01:40:27.359Z,2.67
2023-03-28T01:43:36.907Z,2.60
2023-03-28T01:46:37.339Z,2.33
2023-03-28T01:49:09.413Z,2.80
2023-03-28T01:52:03.318Z,2.80
2023-03-28T01:55:17.516Z,2.40
2023-03-28T01:58:12.098Z,2.47
2023-03-28T02:01:13.928Z,2.40
2023-03-28T02:03:48.853Z,2.83
2023-03-28T02:06:21.376Z,2.57
2023-03-28T02:08:52.042Z,2.50
2023-03-28T02:11:19.560Z,2.53
2023-03-28T02:14:07.524Z,3.17
2023-03-28T02:16:42.342Z,2.53
2023-03-28T02:19:15.006Z,2.70
2023-03-28T02:21:57.641Z,3.33
2023-03-28T02:24:26.243Z,2.47
2023-03-28T02:26:56.622Z,2.60
2023-03-28T02:29:23.834Z,2.40
2023-03-28T02:31:51.939Z,2.70
2023-03-28T02:34:19.444Z,2.57
2023-03-28T02:37:18.434Z,3.03
2023-03-28T02:40:36.998Z,3.57
2023-03-28T02:43:47.674Z,2.40
2023-03-28T02:46:36.700Z,2.60
2023-03-28T02:49:49.532Z,2.53
2023-03-28T02:53:14.857Z,2.63
2023-03-28T02:55:57.475Z,3.40
2023-03-28T02:58:55.841Z,2.80
2023-03-28T03:01:29.140Z,2.43
2023-03-28T03:03:58.439Z,2.97
2023-03-28T03:06:45.928Z,2.13
2023-03-28T03:09:13.796Z,2.83
2023-03-28T03:11:47.351Z,3.10
2023-03-28T03:14:18.852Z,2.87
2023-03-28T03:16:48.986Z,3.07
2023-03-28T03:19:19.233Z,2.27
2023-03-28T03:21:46.925Z,2.40
2023-03-28T03:24:28.516Z,2.60
2023-03-28T03:26:56.069Z,2.20
2023-03-28T03:29:23.495Z,2.80
2023-03-28T03:31:58.074Z,2.83
2023-03-28T03:34:26.612Z,2.47
2023-03-28T03:36:54.901Z,2.27
2023-03-28T03:39:25.364Z,2.53
2023-03-28T03:41:53.060Z,3.00
2023-03-28T03:44:20.458Z,2.80
2023-03-28T03:46:48.256Z,2.47
2023-03-28T03:49:15.689Z,2.67
2023-03-28T03:51:48.018Z,2.27
2023-03-28T03:54:15.420Z,2.53
2023-03-28T03:56:43.110Z,2.50
2023-03-28T03:59:13.800Z,2.70
2023-03-28T04:01:45.180Z,2.90
2023-03-28T04:04:19.090Z,2.83
2023-03-28T04:06:46.452Z,2.70
2023-03-28T04:09:17.127Z,3.00
2023-03-28T04:11:49.019Z,2.67
2023-03-28T04:14:16.783Z,3.00
2023-03-28T04:16:45.165Z,2.80
2023-03-28T04:19:25.845Z,2.80
2023-03-28T04:21:57.541Z,2.77
2023-03-28T04:24:25.275Z,2.77
2023-03-28T04:26:56.399Z,2.47
2023-03-28T04:29:30.916Z,2.70
2023-03-28T04:32:01.099Z,2.20
2023-03-28T04:34:31.318Z,2.50
2023-03-28T04:37:03.943Z,2.07
2023-03-28T04:39:35.850Z,2.47
2023-03-28T04:42:05.757Z,2.80
2023-03-28T04:44:56.270Z,3.13
2023-03-28T04:47:26.904Z,2.20
2023-03-28T04:52:36.609Z,2.47
2023-03-28T04:55:04.830Z,2.40
2023-03-28T04:57:32.361Z,2.67
2023-03-28T04:59:59.656Z,2.60
2023-03-28T05:02:30.012Z,3.30
2023-03-28T05:04:57.401Z,2.60
2023-03-28T05:07:27.749Z,3.20
2023-03-28T05:09:58.672Z,2.50
2023-03-28T05:12:28.686Z,2.70
2023-03-28T05:15:08.706Z,2.60
2023-03-28T05:17:36.018Z,2.17
2023-03-28T05:23:00.620Z,2.70
2023-03-28T05:25:28.634Z,3.50
2023-03-28T05:28:06.669Z,2.90
2023-03-28T05:30:34.026Z,2.73
2023-03-28T05:33:01.968Z,2.87
2023-03-28T05:35:29.610Z,3.20
2023-03-28T05:37:58.010Z,3.03
2023-03-28T05:40:25.485Z,3.20
2023-03-28T05:42:53.185Z,3.33
2023-03-28T05:45:20.680Z,3.17
2023-03-28T05:47:52.137Z,3.67
2023-03-28T05:50:19.674Z,2.63
2023-03-28T05:52:53.811Z,2.70
2023-03-28T05:55:21.849Z,2.57
2023-03-28T06:01:04.881Z,2.70
2023-03-28T06:07:54.976Z,3.03
2023-03-28T06:10:42.999Z,3.27
2023-03-28T06:13:13.796Z,2.87
2023-03-28T06:15:44.316Z,3.37
2023-03-28T06:18:12.219Z,2.90
2023-03-28T06:20:45.516Z,2.70
2023-03-28T06:23:21.978Z,2.60
2023-03-28T06:25:57.225Z,2.33
2023-03-28T06:28:25.022Z,2.90
2023-03-28T06:30:52.528Z,2.50
2023-03-28T06:33:20.359Z,2.67
2023-03-28T06:35:48.305Z,2.80
2023-03-28T06:38:15.785Z,2.87
2023-03-28T06:40:43.993Z,2.90
2023-03-28T06:43:11.837Z,3.30
2023-03-28T06:45:40.852Z,2.33
2023-03-28T06:48:08.809Z,2.70
2023-03-28T06:50:36.263Z,2.97
2023-03-28T06:53:06.339Z,3.17
2023-03-28T06:55:45.100Z,2.77
2023-03-28T06:58:39.331Z,2.60
2023-03-28T07:04:26.411Z,3.00
2023-03-28T07:06:54.110Z,2.33
2023-03-28T07:09:21.505Z,2.63
2023-03-28T07:11:49.157Z,3.00
2023-03-28T07:14:18.913Z,2.80
2023-03-28T07:16:49.253Z,2.57
2023-03-28T07:19:16.733Z,2.80
2023-03-28T07:21:44.689Z,3.07
2023-03-28T07:24:12.125Z,2.47
2023-03-28T07:26:39.998Z,7.83
2023-03-28T07:29:07.967Z,2.77
2023-03-28T07:31:35.395Z,2.57
2023-03-28T07:34:02.848Z,2.60
2023-03-28T07:36:30.602Z,2.90
2023-03-28T07:38:57.786Z,3.37
2023-03-28T07:41:28.008Z,3.07
2023-03-28T07:43:58.389Z,2.50
2023-03-28T07:46:25.972Z,3.50
2023-03-28T07:49:02.191Z,3.30
2023-03-28T07:51:29.426Z,2.77
2023-03-28T07:53:57.010Z,3.30
2023-03-28T07:59:43.848Z,2.37
2023-03-28T08:02:16.164Z,2.30
2023-03-28T08:04:54.360Z,2.57
2023-03-28T08:07:34.451Z,2.00
2023-03-28T08:10:03.262Z,2.77
2023-03-28T08:12:34.327Z,2.40
2023-03-28T08:15:01.819Z,2.33
2023-03-28T08:17:32.848Z,2.20
2023-03-28T08:20:06.812Z,2.10
2023-03-28T08:22:40.380Z,2.55
2023-03-28T08:25:22.480Z,1.77
2023-03-28T08:28:11.838Z,2.42
2023-03-28T08:30:48.342Z,2.30
2023-03-28T08:33:15.953Z,2.42
2023-03-28T08:35:44.668Z,1.95
2023-03-28T08:38:12.214Z,1.73
2023-03-28T08:40:49.380Z,1.80
2023-03-28T08:43:48.943Z,2.03
2023-03-28T08:46:26.542Z,2.00
2023-03-28T08:48:56.019Z,1.80
2023-03-28T08:51:56.193Z,1.98
2023-03-28T08:54:50.536Z,1.83
2023-03-28T08:57:46.103Z,1.77
2023-03-28T09:00:37.659Z,1.40
2023-03-28T09:03:21.042Z,1.60
2023-03-28T09:07:04.172Z,1.60
2023-03-28T09:10:09.797Z,1.70
2023-03-28T09:13:20.496Z,1.50
2023-03-28T09:19:40.644Z,1.38
2023-03-28T09:22:47.642Z,1.70
2023-03-28T09:25:51.808Z,0.90
2023-03-28T09:28:52.365Z,1.20
2023-03-28T09:31:28.117Z,1.10
2023-03-28T09:33:59.226Z,1.10
2023-03-28T09:36:49.619Z,1.02
2023-03-28T09:40:09.005Z,3.47
2023-03-28T09:43:14.004Z,4.00
2023-03-28T09:46:22.803Z,2.03
2023-03-28T09:48:50.338Z,2.20
2023-03-28T09:51:20.554Z,2.07
2023-03-28T09:53:48.709Z,3.10
2023-03-28T09:56:33.562Z,3.00
2023-03-28T09:59:03.815Z,1.50
2023-03-28T10:01:46.285Z,1.37
2023-03-28T10:04:22.397Z,1.50
2023-03-28T10:06:49.646Z,1.40
2023-03-28T10:09:27.451Z,1.37
2023-03-28T10:12:09.163Z,1.20
2023-03-28T10:14:47.393Z,1.20
2023-03-28T10:17:26.306Z,1.40
2023-03-28T10:20:00.587Z,1.50
2023-03-28T10:22:35.677Z,1.37
2023-03-28T10:25:13.471Z,1.40
2023-03-28T10:27:40.770Z,1.37
2023-03-28T10:30:13.697Z,1.40
2023-03-28T10:32:41.843Z,1.60
2023-03-28T10:35:26.917Z,1.20
2023-03-28T10:38:03.915Z,1.83
2023-03-28T10:40:32.849Z,1.30
2023-03-28T10:43:00.365Z,1.30
2023-03-28T10:45:42.038Z,1.37
2023-03-28T10:48:25.941Z,1.80
2023-03-28T10:51:00.874Z,1.30
2023-03-28T10:54:03.170Z,1.30
2023-03-28T10:56:50.526Z,1.40
2023-03-28T10:59:55.077Z,1.47
2023-03-28T11:03:07.263Z,1.23
2023-03-28T11:05:54.891Z,1.53
2023-03-28T11:08:47.966Z,2.00
2023-03-28T11:11:48.475Z,1.90
2023-03-28T11:14:54.001Z,1.40
2023-03-28T11:17:53.018Z,2.50
2023-03-28T11:20:45.741Z,1.43
2023-03-28T11:23:54.106Z,1.50
2023-03-28T11:26:42.054Z,1.60
2023-03-28T11:29:43.585Z,1.50
2023-03-28T11:32:38.996Z,1.67
2023-03-28T11:35:49.938Z,1.70
2023-03-28T11:38:28.359Z,1.70
2023-03-28T11:41:21.260Z,1.90
2023-03-28T11:44:06.690Z,1.52
2023-03-28T11:46:42.866Z,1.70
2023-03-28T11:49:32.469Z,1.70
2023-03-28T11:52:09.739Z,1.80
2023-03-28T11:54:54.897Z,1.60
2023-03-28T11:57:39.539Z,2.37
2023-03-28T12:00:33.932Z,1.90
2023-03-28T12:03:27.715Z,1.97
2023-03-28T12:06:05.841Z,1.90
2023-03-28T12:08:41.750Z,1.60
2023-03-28T12:11:20.397Z,1.90
2023-03-28T12:14:12.103Z,1.33
2023-03-28T12:16:48.776Z,2.10
2023-03-28T12:19:51.010Z,1.53
2023-03-28T12:22:40.950Z,1.60
2023-03-28T12:25:37.718Z,1.53
2023-03-28T12:28:27.057Z,1.50
2023-03-28T12:31:16.300Z,1.50
2023-03-28T12:34:07.962Z,1.50
2023-03-28T12:36:49.072Z,1.70
2023-03-28T12:39:46.941Z,1.40
2023-03-28T12:42:21.063Z,1.30
2023-03-28T12:45:01.906Z,1.80
2023-03-28T12:47:38.653Z,1.70
2023-03-28T12:50:14.827Z,1.53
2023-03-28T12:52:45.348Z,1.50
2023-03-28T12:55:47.416Z,1.73
2023-03-28T12:58:34.971Z,1.40
2023-03-28T13:01:07.535Z,1.70
2023-03-28T13:03:56.011Z,1.47
2023-03-28T13:06:36.519Z,1.07
2023-03-28T13:09:20.886Z,1.90
2023-03-28T13:12:30.214Z,1.50
2023-03-28T13:15:21.678Z,1.77
2023-03-28T13:18:21.410Z,1.57
2023-03-28T13:20:51.924Z,1.60
2023-03-28T13:23:28.736Z,1.87
2023-03-28T13:26:02.687Z,1.60
2023-03-28T13:28:44.568Z,1.70
2023-03-28T13:31:21.589Z,1.50
2023-03-28T13:34:01.463Z,1.70
2023-03-28T13:36:35.498Z,1.50
2023-03-28T13:39:22.440Z,1.20
2023-03-28T13:41:49.615Z,1.73
2023-03-28T13:44:42.343Z,2.43
2023-03-28T13:47:20.514Z,2.30
2023-03-28T13:50:11.953Z,1.70
2023-03-28T13:52:42.433Z,1.83
2023-03-28T13:55:27.344Z,2.20
2023-03-28T13:58:08.347Z,1.90
2023-03-28T14:00:36.335Z,1.70
2023-03-28T14:03:13.610Z,1.67
2023-03-28T14:05:46.560Z,1.80
2023-03-28T14:08:13.638Z,2.00
2023-03-28T14:10:45.009Z,2.00
2023-03-28T14:13:28.934Z,2.03
2023-03-28T14:15:57.077Z,1.90
2023-03-28T14:18:46.290Z,1.83
2023-03-28T14:21:15.824Z,1.90
2023-03-28T14:24:25.615Z,2.20
2023-03-28T14:27:05.645Z,1.70
2023-03-28T14:29:32.841Z,2.10
2023-03-28T14:32:01.109Z,1.83
2023-03-28T14:34:35.351Z,2.10
2023-03-28T14:37:07.745Z,2.03
2023-03-28T14:39:39.176Z,2.03
2023-03-28T14:42:16.169Z,2.00
2023-03-28T14:44:55.350Z,2.03
2023-03-28T14:47:32.963Z,1.93
2023-03-28T14:50:02.244Z,2.00
2023-03-28T14:52:36.370Z,2.00
2023-03-28T14:55:04.929Z,1.60
2023-03-28T14:57:33.342Z,1.70
2023-03-28T15:00:01.019Z,2.00
2023-03-28T15:02:36.297Z,2.00
2023-03-28T15:05:09.018Z,2.30
2023-03-28T15:07:37.191Z,1.97
2023-03-28T15:10:06.552Z,2.50
2023-03-28T15:12:41.876Z,2.20
2023-03-28T15:15:30.615Z,2.07
2023-03-28T15:18:03.211Z,2.57
2023-03-28T15:20:34.981Z,1.90
2023-03-28T15:23:07.612Z,2.33
2023-03-28T15:25:35.795Z,2.20
2023-03-28T15:28:10.524Z,2.00
2023-03-28T15:30:43.642Z,1.87
2023-03-28T15:33:21.788Z,1.90
2023-03-28T15:35:49.214Z,2.10
2023-03-28T15:38:27.534Z,2.10
2023-03-28T15:41:09.309Z,1.70
2023-03-28T15:43:59.385Z,2.17
2023-03-28T15:46:32.762Z,2.60
2023-03-28T15:49:02.311Z,2.53
2023-03-28T15:51:31.466Z,2.27
2023-03-28T15:54:01.163Z,2.50
2023-03-28T15:56:33.948Z,2.00
2023-03-28T15:59:40.036Z,1.90
2023-03-28T16:02:28.534Z,2.00
2023-03-28T16:04:58.664Z,2.40
2023-03-28T16:07:26.978Z,2.00
2023-03-28T16:09:54.412Z,2.23
2023-03-28T16:12:25.008Z,2.23
2023-03-28T16:14:53.990Z,2.30
2023-03-28T16:17:29.743Z,3.17
2023-03-28T16:19:58.444Z,2.57
2023-03-28T16:22:27.436Z,2.53
2023-03-28T16:24:58.550Z,3.07
2023-03-28T16:27:26.904Z,3.53
2023-03-28T16:29:54.147Z,2.67
2023-03-28T16:32:23.928Z,2.77
2023-03-28T16:34:54.171Z,2.70
2023-03-28T16:37:22.048Z,2.77
2023-03-28T16:39:49.294Z,2.97
2023-03-28T16:42:16.828Z,2.50
2023-03-28T16:44:43.914Z,3.47
2023-03-28T16:47:11.238Z,2.93
2023-03-28T16:49:38.992Z,2.37
2023-03-28T16:52:07.566Z,1.90
2023-03-28T16:54:34.815Z,2.40
2023-03-28T16:57:02.762Z,2.47
2023-03-28T16:59:30.023Z,2.07
2023-03-28T17:01:57.336Z,2.30
2023-03-28T17:04:24.588Z,2.40
2023-03-28T17:06:52.854Z,2.80
2023-03-28T17:09:20.476Z,2.77
2023-03-28T17:11:47.231Z,2.83
2023-03-28T17:14:14.400Z,2.60
2023-03-28T17:16:46.104Z,2.60
2023-03-28T17:19:13.972Z,2.60
2023-03-28T17:21:41.328Z,2.40
2023-03-28T17:24:11.426Z,2.33
2023-03-28T17:26:38.396Z,2.10
2023-03-28T17:29:07.388Z,2.43
2023-03-28T17:31:34.687Z,2.77
2023-03-28T17:34:01.705Z,3.20
2023-03-28T17:36:29.692Z,3.37
2023-03-28T17:38:58.573Z,3.00
2023-03-28T17:41:27.603Z,3.30
2023-03-28T17:43:56.484Z,3.10
2023-03-28T17:46:24.620Z,2.93
2023-03-28T17:48:51.593Z,3.13
2023-03-28T17:51:19.090Z,3.53
2023-03-28T17:53:47.036Z,2.43
2023-03-28T17:56:16.132Z,2.60
2023-03-28T17:58:43.744Z,2.37
2023-03-28T18:01:14.614Z,2.50
2023-03-28T18:03:42.088Z,2.40
2023-03-28T18:06:09.780Z,2.10
2023-03-28T18:08:37.423Z,2.37
2023-03-28T18:11:13.813Z,2.60
2023-03-28T18:13:42.318Z,2.43
2023-03-28T18:16:13.792Z,2.13
2023-03-28T18:18:42.649Z,1.77
2023-03-28T18:21:12.804Z,1.97
2023-03-28T18:23:41.470Z,2.00
2023-03-28T18:26:09.258Z,1.83
2023-03-28T18:28:36.939Z,2.10
2023-03-28T18:31:12.753Z,1.97
2023-03-28T18:33:43.168Z,2.93
2023-03-28T18:36:13.104Z,1.90
2023-03-28T18:38:46.662Z,2.00
2023-03-28T18:41:14.402Z,2.00
2023-03-28T18:43:42.967Z,2.27
2023-03-28T18:48:40.440Z,2.20
2023-03-28T18:51:08.236Z,2.10
2023-03-28T18:53:40.009Z,2.13
2023-03-28T18:56:09.182Z,1.70
2023-03-28T18:58:37.488Z,1.93
2023-03-28T19:01:07.253Z,2.00
2023-03-28T19:03:43.396Z,1.80
2023-03-28T19:06:13.428Z,2.13
2023-03-28T19:08:40.579Z,1.70
2023-03-28T19:11:14.798Z,2.80
2023-03-28T19:13:43.028Z,2.23
2023-03-28T19:16:13.984Z,2.43
2023-03-28T19:18:44.162Z,2.43
2023-03-28T19:21:12.504Z,2.17
2023-03-28T19:23:40.748Z,2.33
2023-03-28T19:26:11.621Z,2.30
2023-03-28T19:28:39.583Z,2.13
2023-03-28T19:31:12.014Z,2.50
2023-03-28T19:33:43.668Z,2.50
2023-03-28T19:36:13.268Z,2.40
2023-03-28T19:38:42.300Z,2.97
2023-03-28T19:41:20.267Z,2.37
2023-03-28T19:43:48.930Z,2.47
2023-03-28T19:46:35.536Z,2.63
2023-03-28T19:49:09.282Z,3.03
2023-03-28T19:51:36.760Z,2.63
2023-03-28T19:54:04.951Z,2.90
2023-03-28T19:56:32.702Z,2.70
2023-03-28T19:59:00.866Z,2.73
2023-03-28T20:01:28.419Z,2.60
2023-03-28T20:03:56.509Z,2.83
2023-03-28T20:06:25.876Z,2.87
2023-03-28T20:08:53.694Z,2.80
2023-03-28T20:11:22.522Z,2.67
2023-03-28T20:13:50.034Z,2.63
2023-03-28T20:16:17.484Z,3.07
2023-03-28T20:18:48.461Z,2.90
2023-03-28T20:21:16.138Z,2.43
2023-03-28T20:23:44.083Z,2.70
2023-03-28T20:26:15.866Z,2.60
2023-03-28T20:28:52.431Z,2.90
2023-03-28T20:31:20.560Z,2.80
2023-03-28T20:33:48.082Z,2.97
2023-03-28T20:36:16.050Z,2.80
2023-03-28T20:38:44.073Z,3.27
2023-03-28T20:41:39.883Z,2.70
2023-03-28T20:44:09.158Z,2.80
2023-03-28T20:46:38.450Z,3.23
2023-03-28T20:49:06.507Z,2.80
2023-03-28T20:51:38.830Z,2.93
2023-03-28T20:54:06.885Z,2.80
2023-03-28T20:56:34.921Z,3.70
2023-03-28T20:59:06.759Z,3.40
2023-03-28T21:01:42.534Z,3.03
2023-03-28T21:04:12.863Z,3.27
2023-03-28T21:06:40.680Z,3.00
2023-03-28T21:09:12.431Z,3.27
2023-03-28T21:11:41.095Z,3.33
2023-03-28T21:14:13.627Z,3.03
2023-03-28T21:16:41.690Z,3.33
2023-03-28T21:19:10.415Z,3.13
2023-03-28T21:21:38.092Z,3.43
2023-03-28T21:24:07.796Z,3.37
2023-03-28T21:26:36.256Z,3.70
2023-03-28T21:29:04.033Z,3.20
2023-03-28T21:31:32.246Z,3.57
2023-03-28T21:33:59.813Z,3.03
2023-03-28T21:36:28.087Z,2.90
2023-03-28T21:38:57.178Z,2.90
2023-03-28T21:41:24.682Z,3.57
2023-03-28T21:43:54.209Z,2.57
2023-03-28T21:46:23.227Z,3.30
2023-03-28T21:48:51.125Z,2.67
2023-03-28T21:51:19.785Z,3.13
2023-03-28T21:53:47.575Z,2.93
2023-03-28T21:56:16.665Z,3.50
2023-03-28T21:58:50.600Z,3.43
2023-03-28T22:01:18.809Z,3.70
2023-03-28T22:03:48.236Z,2.70
2023-03-28T22:06:18.457Z,3.13
2023-03-28T22:08:52.411Z,3.27
2023-03-28T22:11:28.462Z,3.20
2023-03-28T22:14:05.190Z,3.23
2023-03-28T22:16:38.995Z,3.27
2023-03-28T22:19:11.497Z,3.03
2023-03-28T22:21:39.489Z,3.43
2023-03-28T22:24:13.546Z,3.07
2023-03-28T22:26:44.771Z,3.00
2023-03-28T22:29:17.715Z,2.70
2023-03-28T22:31:45.338Z,2.30
2023-03-28T22:34:14.408Z,3.17
2023-03-28T22:36:43.347Z,2.83
2023-03-28T22:39:18.013Z,3.30
2023-03-28T22:41:49.443Z,2.80
2023-03-28T22:44:17.777Z,2.90
2023-03-28T22:46:46.647Z,2.67
2023-03-28T22:49:22.346Z,2.83
2023-03-28T22:51:53.091Z,2.70
2023-03-28T22:54:22.880Z,2.77
2023-03-28T22:56:51.019Z,2.63
2023-03-28T22:59:18.496Z,3.40
2023-03-28T23:01:46.847Z,2.90
2023-03-28T23:04:14.794Z,3.27
2023-03-28T23:06:49.207Z,3.07
2023-03-28T23:09:18.881Z,3.13
2023-03-28T23:11:46.524Z,3.30
2023-03-28T23:14:14.852Z,3.00
2023-03-28T23:16:44.080Z,3.10
2023-03-28T23:19:12.188Z,3.10
2023-03-28T23:21:41.763Z,3.00
2023-03-28T23:24:18.174Z,2.90
2023-03-28T23:26:45.936Z,3.27
2023-03-28T23:29:13.754Z,3.13
2023-03-28T23:31:41.519Z,2.90
2023-03-28T23:34:09.062Z,2.90
2023-03-28T23:36:40.291Z,3.10
2023-03-28T23:39:11.538Z,2.80
2023-03-28T23:41:40.053Z,3.07
2023-03-28T23:44:08.297Z,3.10
2023-03-28T23:46:36.147Z,2.90
2023-03-28T23:49:03.728Z,3.10
2023-03-28T23:51:31.733Z,3.03
2023-03-28T23:54:05.236Z,3.03
2023-03-28T23:56:41.320Z,2.37
2023-03-28T23:59:09.048Z,3.40
